createdAt,value
2019-04-09T00:02:42.618Z,19.70
2019-04-09T00:05:10.367Z,18.92
2019-04-09T00:07:37.280Z,19.77
2019-04-09T00:10:06.012Z,19.62
2019-04-09T00:12:33.173Z,17.70
2019-04-09T00:15:00.746Z,18.98
2019-04-09T00:17:27.597Z,19.17
2019-04-09T00:19:55.394Z,20.37
2019-04-09T00:22:22.323Z,20.85
2019-04-09T00:24:49.826Z,20.65
2019-04-09T00:27:16.888Z,19.25
2019-04-09T00:29:44.273Z,21.95
2019-04-09T00:32:12.101Z,19.62
2019-04-09T00:34:38.986Z,20.37
2019-04-09T00:37:06.890Z,19.25
2019-04-09T00:39:34.757Z,20.40
2019-04-09T00:42:02.571Z,19.30
2019-04-09T00:44:30.505Z,18.75
2019-04-09T00:46:57.567Z,20.75
2019-04-09T00:49:25.275Z,20.50
2019-04-09T00:51:52.268Z,20.00
2019-04-09T00:54:19.224Z,20.35
2019-04-09T00:56:57.257Z,20.17
2019-04-09T00:59:15.402Z,19.55
2019-04-09T01:01:42.364Z,19.15
2019-04-09T01:04:09.200Z,19.12
2019-04-09T01:06:35.984Z,19.37
2019-04-09T01:09:08.187Z,19.40
2019-04-09T01:11:35.224Z,19.65
2019-04-09T01:14:02.928Z,19.17
2019-04-09T01:16:29.821Z,18.97
2019-04-09T01:19:08.262Z,19.77
2019-04-09T01:21:25.238Z,19.15
2019-04-09T01:23:52.016Z,17.52
2019-04-09T01:26:20.762Z,19.60
2019-04-09T01:28:55.647Z,18.90
2019-04-09T01:31:43.850Z,18.50
2019-04-09T01:34:24.532Z,19.47
2019-04-09T01:36:55.774Z,20.70
2019-04-09T01:39:30.420Z,19.20
2019-04-09T01:42:14.118Z,19.90
2019-04-09T01:44:52.383Z,20.23
2019-04-09T01:47:26.974Z,18.95
2019-04-09T01:49:55.566Z,19.23
2019-04-09T01:52:42.662Z,19.25
2019-04-09T01:55:11.377Z,21.10
2019-04-09T01:57:55.841Z,19.42
2019-04-09T02:00:24.528Z,19.60
2019-04-09T02:02:53.975Z,19.92
2019-04-09T02:05:40.088Z,19.62
2019-04-09T02:08:08.876Z,19.35
2019-04-09T02:10:54.617Z,19.00
2019-04-09T02:13:41.402Z,17.30
2019-04-09T02:16:13.026Z,18.73
2019-04-09T02:18:42.438Z,18.52
2019-04-09T02:21:20.440Z,22.00
2019-04-09T02:23:52.457Z,20.40
2019-04-09T02:26:23.980Z,23.10
2019-04-09T02:28:52.586Z,21.90
2019-04-09T02:31:23.698Z,22.60
2019-04-09T02:34:02.785Z,20.43
2019-04-09T02:36:50.694Z,22.62
2019-04-09T02:39:24.311Z,20.30
2019-04-09T02:41:56.593Z,20.48
2019-04-09T02:44:25.445Z,20.85
2019-04-09T02:47:06.121Z,20.60
2019-04-09T02:49:41.445Z,21.40
2019-04-09T02:52:15.957Z,20.25
2019-04-09T02:55:00.336Z,22.02
2019-04-09T02:57:50.292Z,24.12
2019-04-09T03:00:23.823Z,22.65
2019-04-09T03:02:58.888Z,21.80
2019-04-09T03:05:45.001Z,22.22
2019-04-09T03:08:31.045Z,23.98
2019-04-09T03:11:06.253Z,23.25
2019-04-09T03:13:51.111Z,24.72
2019-04-09T03:16:20.813Z,24.97
2019-04-09T03:18:52.441Z,24.85
2019-04-09T03:21:26.868Z,24.63
2019-04-09T03:24:02.164Z,24.57
2019-04-09T03:26:34.581Z,26.68
2019-04-09T03:29:03.341Z,26.20
2019-04-09T03:31:34.992Z,26.50
2019-04-09T03:34:11.540Z,25.90
2019-04-09T03:36:56.416Z,24.15
2019-04-09T03:39:38.131Z,25.60
2019-04-09T03:42:06.850Z,25.50
2019-04-09T03:44:53.878Z,24.80
2019-04-09T03:47:32.104Z,24.85
2019-04-09T03:50:31.932Z,25.50
2019-04-09T03:53:00.620Z,24.75
2019-04-09T03:55:32.236Z,21.77
2019-04-09T03:58:16.432Z,23.98
2019-04-09T04:00:38.964Z,25.23
2019-04-09T04:03:24.177Z,22.55
2019-04-09T04:05:55.577Z,23.55
2019-04-09T04:08:24.927Z,21.20
2019-04-09T04:11:05.453Z,21.35
2019-04-09T04:13:46.949Z,23.98
2019-04-09T04:16:15.928Z,22.90
2019-04-09T04:18:50.803Z,23.45
2019-04-09T04:21:35.865Z,24.00
2019-04-09T04:24:07.876Z,23.50
2019-04-09T04:26:40.621Z,22.60
2019-04-09T04:29:09.619Z,22.60
2019-04-09T04:31:54.980Z,22.95
2019-04-09T04:34:23.731Z,21.48
2019-04-09T04:36:52.317Z,22.10
2019-04-09T04:39:30.045Z,22.80
2019-04-09T04:41:58.633Z,21.95
2019-04-09T04:44:42.456Z,21.68
2019-04-09T04:47:11.065Z,23.95
2019-04-09T04:49:56.023Z,23.38
2019-04-09T04:52:42.878Z,22.48
2019-04-09T04:55:41.181Z,22.95
2019-04-09T04:58:12.541Z,23.52
2019-04-09T05:00:47.132Z,24.67
2019-04-09T05:03:24.845Z,24.20
2019-04-09T05:06:05.581Z,22.90
2019-04-09T05:08:34.272Z,22.80
2019-04-09T05:11:08.677Z,23.45
2019-04-09T05:13:47.166Z,24.18
2019-04-09T05:16:16.562Z,23.57
2019-04-09T05:18:51.407Z,23.32
2019-04-09T05:21:32.432Z,23.22
2019-04-09T05:24:02.401Z,23.83
2019-04-09T05:26:34.109Z,24.07
2019-04-09T05:29:09.955Z,22.05
2019-04-09T05:31:39.713Z,22.52
2019-04-09T05:34:17.745Z,21.00
2019-04-09T05:36:46.541Z,22.10
2019-04-09T05:39:24.185Z,22.42
2019-04-09T05:41:52.784Z,21.95
2019-04-09T05:44:25.079Z,22.52
2019-04-09T05:46:54.601Z,23.18
2019-04-09T05:49:40.257Z,21.52
2019-04-09T05:52:23.256Z,20.88
2019-04-09T05:55:08.654Z,20.57
2019-04-09T05:57:49.392Z,21.00
2019-04-09T06:00:36.617Z,22.00
2019-04-09T06:03:21.912Z,21.93
2019-04-09T06:05:57.248Z,22.45
2019-04-09T06:08:27.514Z,22.60
2019-04-09T06:10:55.597Z,21.82
2019-04-09T06:13:22.404Z,22.17
2019-04-09T06:15:49.682Z,20.82
2019-04-09T06:18:16.604Z,20.55
2019-04-09T06:20:44.425Z,19.98
2019-04-09T06:23:12.004Z,21.40
2019-04-09T06:25:40.100Z,19.30
2019-04-09T06:28:07.908Z,19.10
2019-04-09T06:30:35.796Z,18.32
2019-04-09T06:33:04.433Z,19.30
2019-04-09T06:35:36.085Z,18.48
2019-04-09T06:38:21.834Z,19.80
2019-04-09T06:40:50.805Z,17.65
2019-04-09T06:43:23.165Z,17.25
2019-04-09T06:45:52.018Z,18.07
2019-04-09T06:48:21.522Z,17.98
2019-04-09T06:50:59.516Z,15.90
2019-04-09T06:53:37.562Z,17.37
2019-04-09T06:56:09.486Z,17.70
2019-04-09T06:58:40.955Z,17.25
2019-04-09T07:01:15.588Z,18.17
2019-04-09T07:03:57.049Z,18.27
2019-04-09T07:06:42.424Z,19.45
2019-04-09T07:09:19.609Z,20.37
2019-04-09T07:11:47.260Z,22.05
2019-04-09T07:14:25.032Z,22.02
2019-04-09T07:16:54.000Z,22.98
2019-04-09T07:19:25.783Z,22.55
2019-04-09T07:21:57.789Z,21.97
2019-04-09T07:24:26.396Z,22.62
2019-04-09T07:26:56.774Z,22.22
2019-04-09T07:29:48.714Z,26.93
2019-04-09T07:32:07.927Z,28.05
2019-04-09T07:34:54.042Z,29.75
2019-04-09T07:37:28.837Z,27.85
2019-04-09T07:40:04.134Z,28.62
2019-04-09T07:42:51.140Z,30.48
2019-04-09T07:45:23.753Z,29.83
2019-04-09T07:47:52.932Z,28.50
2019-04-09T07:50:23.985Z,28.55
2019-04-09T07:53:04.707Z,31.02
2019-04-09T07:55:39.320Z,36.90
2019-04-09T07:58:11.289Z,38.02
2019-04-09T08:00:58.289Z,34.35
2019-04-09T08:03:30.648Z,35.03
2019-04-09T08:05:58.535Z,36.65
2019-04-09T08:08:45.281Z,34.83
2019-04-09T08:11:14.003Z,37.30
2019-04-09T08:13:52.626Z,36.68
2019-04-09T08:16:31.925Z,37.90
2019-04-09T08:19:20.686Z,36.30
2019-04-09T08:21:59.134Z,37.95
2019-04-09T08:24:30.425Z,35.40
2019-04-09T08:27:01.913Z,38.88
2019-04-09T08:29:33.570Z,38.28
2019-04-09T08:32:18.505Z,38.40
2019-04-09T08:34:45.947Z,38.85
2019-04-09T08:37:16.969Z,40.90
2019-04-09T08:39:50.913Z,40.12
2019-04-09T08:42:36.960Z,38.35
2019-04-09T08:45:20.474Z,39.60
2019-04-09T08:48:17.915Z,41.02
2019-04-09T08:51:05.928Z,40.30
2019-04-09T08:53:38.335Z,40.83
2019-04-09T08:56:13.684Z,39.27
2019-04-09T08:58:49.237Z,39.85
2019-04-09T09:01:55.147Z,38.00
2019-04-09T09:04:22.197Z,38.80
2019-04-09T09:07:07.354Z,35.55
2019-04-09T09:09:43.237Z,35.83
2019-04-09T09:12:12.737Z,35.70
2019-04-09T09:14:41.615Z,35.55
2019-04-09T09:17:27.734Z,35.75
2019-04-09T09:20:05.630Z,34.50
2019-04-09T09:22:40.358Z,36.28
2019-04-09T09:25:08.380Z,33.88
2019-04-09T09:27:43.502Z,34.15
2019-04-09T09:30:10.959Z,34.13
2019-04-09T09:32:39.655Z,34.33
2019-04-09T09:35:21.407Z,34.03
2019-04-09T09:38:02.797Z,33.85
2019-04-09T09:40:34.466Z,34.45
2019-04-09T09:43:12.793Z,32.75
2019-04-09T09:45:39.895Z,33.30
2019-04-09T09:48:26.158Z,33.67
2019-04-09T09:51:13.022Z,33.78
2019-04-09T09:53:53.240Z,34.20
2019-04-09T09:56:23.339Z,33.30
2019-04-09T09:59:04.796Z,32.15
2019-04-09T10:01:45.703Z,28.30
2019-04-09T10:04:30.514Z,32.00
2019-04-09T10:07:02.049Z,30.27
2019-04-09T10:09:47.048Z,29.90
2019-04-09T10:12:39.639Z,31.95
2019-04-09T10:15:16.617Z,29.60
2019-04-09T10:17:49.634Z,27.27
2019-04-09T10:20:20.906Z,25.17
2019-04-09T10:22:54.858Z,25.88
2019-04-09T10:25:29.775Z,26.10
2019-04-09T10:27:56.603Z,24.53
2019-04-09T10:30:45.974Z,26.00
2019-04-09T10:33:28.793Z,24.75
2019-04-09T10:36:14.193Z,26.52
2019-04-09T10:38:45.532Z,27.27
2019-04-09T10:41:31.498Z,29.50
2019-04-09T10:43:50.621Z,27.02
2019-04-09T10:46:22.135Z,27.93
2019-04-09T10:48:59.630Z,29.10
2019-04-09T10:51:31.304Z,26.27
2019-04-09T10:54:06.796Z,27.77
2019-04-09T10:56:53.236Z,25.15
2019-04-09T10:59:35.192Z,25.43
2019-04-09T11:02:14.219Z,24.07
2019-04-09T11:04:44.808Z,25.02
2019-04-09T11:07:13.694Z,23.70
2019-04-09T11:09:42.480Z,25.20
2019-04-09T11:12:28.548Z,26.00
2019-04-09T11:15:02.579Z,29.90
2019-04-09T11:17:36.982Z,27.33
2019-04-09T11:20:24.722Z,29.75
2019-04-09T11:23:13.117Z,28.52
2019-04-09T11:25:47.536Z,27.32
2019-04-09T11:28:34.310Z,31.15
2019-04-09T11:31:06.417Z,28.52
2019-04-09T11:33:44.827Z,26.42
2019-04-09T11:36:17.009Z,26.30
2019-04-09T11:38:54.446Z,27.10
2019-04-09T11:41:23.233Z,27.70
2019-04-09T11:44:04.703Z,27.07
2019-04-09T11:46:52.734Z,27.17
2019-04-09T11:49:22.532Z,23.83
2019-04-09T11:51:54.213Z,24.25
2019-04-09T11:54:39.405Z,22.55
2019-04-09T11:57:23.176Z,23.20
2019-04-09T12:00:08.505Z,23.70
2019-04-09T12:02:48.981Z,24.60
2019-04-09T12:05:25.363Z,26.23
2019-04-09T12:08:00.234Z,24.50
2019-04-09T12:10:32.340Z,25.12
2019-04-09T12:13:16.319Z,24.47
2019-04-09T12:16:01.472Z,24.90
2019-04-09T12:18:39.944Z,24.40
2019-04-09T12:21:11.596Z,24.18
2019-04-09T12:23:44.693Z,23.60
2019-04-09T12:26:20.284Z,24.75
2019-04-09T12:29:04.512Z,23.30
2019-04-09T12:31:37.309Z,23.10
2019-04-09T12:34:13.751Z,24.37
2019-04-09T12:36:42.788Z,22.07
2019-04-09T12:39:14.460Z,24.47
2019-04-09T12:41:52.134Z,23.35
2019-04-09T12:44:40.194Z,22.13
2019-04-09T12:47:26.047Z,23.67
2019-04-09T12:50:11.080Z,23.20
2019-04-09T12:52:56.574Z,26.25
2019-04-09T12:55:25.321Z,24.30
2019-04-09T12:57:59.859Z,25.05
2019-04-09T13:00:44.420Z,24.03
2019-04-09T13:03:13.247Z,24.27
2019-04-09T13:05:45.948Z,23.02
2019-04-09T13:08:17.798Z,24.90
2019-04-09T13:11:02.302Z,25.95
2019-04-09T13:13:46.795Z,22.10
2019-04-09T13:16:30.881Z,24.10
2019-04-09T13:19:00.611Z,25.45
2019-04-09T13:21:41.363Z,24.87
2019-04-09T13:24:29.183Z,24.80
2019-04-09T13:27:04.667Z,24.05
2019-04-09T13:29:52.226Z,26.05
2019-04-09T13:32:21.609Z,24.23
2019-04-09T13:34:50.373Z,22.80
2019-04-09T13:37:22.285Z,22.13
2019-04-09T13:39:54.521Z,23.85
2019-04-09T13:42:33.642Z,24.37
2019-04-09T13:45:05.084Z,23.85
2019-04-09T13:47:39.553Z,24.73
2019-04-09T13:50:20.950Z,24.70
2019-04-09T13:52:48.690Z,23.65
2019-04-09T13:55:16.399Z,22.67
2019-04-09T13:57:43.383Z,19.23
2019-04-09T14:00:14.488Z,24.00
2019-04-09T14:02:51.707Z,23.32
2019-04-09T14:05:13.748Z,23.65
2019-04-09T14:07:41.611Z,22.30
2019-04-09T14:10:10.175Z,22.50
2019-04-09T14:12:37.218Z,23.35
2019-04-09T14:15:07.106Z,24.40
2019-04-09T14:17:34.181Z,24.80
2019-04-09T14:20:02.909Z,25.92
2019-04-09T14:22:30.003Z,23.10
2019-04-09T14:24:56.896Z,25.63
2019-04-09T14:27:31.615Z,24.20
2019-04-09T14:29:52.369Z,23.45
2019-04-09T14:32:19.577Z,25.65
2019-04-09T14:34:47.509Z,24.70
2019-04-09T14:37:14.517Z,25.43
2019-04-09T14:39:42.439Z,26.65
2019-04-09T14:42:10.362Z,25.07
2019-04-09T14:44:38.391Z,25.20
2019-04-09T14:47:06.203Z,27.10
2019-04-09T14:49:33.387Z,26.85
2019-04-09T14:52:01.192Z,25.25
2019-04-09T14:54:28.712Z,25.72
2019-04-09T14:56:56.540Z,27.10
2019-04-09T14:59:24.214Z,24.77
2019-04-09T15:01:51.236Z,23.65
2019-04-09T15:04:19.202Z,25.35
2019-04-09T15:06:47.107Z,25.80
2019-04-09T15:09:14.712Z,23.25
2019-04-09T15:11:41.640Z,24.07
2019-04-09T15:14:08.529Z,27.70
2019-04-09T15:16:35.432Z,26.40
2019-04-09T15:19:02.935Z,27.73
2019-04-09T15:21:31.681Z,27.17
2019-04-09T15:23:59.087Z,27.55
2019-04-09T15:26:26.143Z,23.98
2019-04-09T15:28:53.004Z,25.25
2019-04-09T15:31:20.629Z,24.20
2019-04-09T15:33:48.664Z,23.20
2019-04-09T15:36:15.664Z,22.87
2019-04-09T15:38:43.167Z,26.43
2019-04-09T15:41:11.165Z,28.35
2019-04-09T15:43:38.489Z,26.35
2019-04-09T15:46:05.365Z,25.27
2019-04-09T15:48:32.490Z,23.57
2019-04-09T15:51:00.340Z,25.43
2019-04-09T15:53:34.227Z,23.35
2019-04-09T15:55:56.062Z,24.57
2019-04-09T15:58:22.860Z,22.35
2019-04-09T16:00:49.852Z,25.65
2019-04-09T16:03:24.393Z,25.50
2019-04-09T16:05:45.385Z,27.10
2019-04-09T16:08:12.277Z,25.35
2019-04-09T16:10:39.335Z,26.87
2019-04-09T16:13:06.301Z,26.68
2019-04-09T16:15:33.195Z,26.77
2019-04-09T16:17:59.978Z,25.32
2019-04-09T16:20:26.850Z,26.35
2019-04-09T16:22:53.649Z,26.77
2019-04-09T16:25:20.640Z,23.57
2019-04-09T16:27:48.520Z,25.27
2019-04-09T16:30:15.647Z,26.68
2019-04-09T16:32:56.974Z,26.35
2019-04-09T16:35:11.180Z,27.20
2019-04-09T16:37:38.032Z,24.72
2019-04-09T16:40:06.563Z,24.37
2019-04-09T16:42:39.802Z,27.13
2019-04-09T16:45:07.359Z,25.70
2019-04-09T16:47:32.092Z,25.70
2019-04-09T16:49:58.950Z,25.75
2019-04-09T16:52:26.769Z,24.57
2019-04-09T16:54:53.852Z,27.52
2019-04-09T16:57:21.448Z,27.37
2019-04-09T16:59:48.502Z,29.82
2019-04-09T17:02:16.278Z,29.27
2019-04-09T17:04:43.231Z,27.73
2019-04-09T17:07:11.266Z,26.45
2019-04-09T17:09:39.131Z,26.77
2019-04-09T17:12:09.911Z,27.32
2019-04-09T17:14:37.123Z,25.23
2019-04-09T17:17:04.907Z,25.90
2019-04-09T17:19:32.991Z,25.65
2019-04-09T17:22:00.147Z,26.30
2019-04-09T17:24:26.964Z,26.00
2019-04-09T17:26:54.133Z,25.68
2019-04-09T17:29:21.172Z,24.18
2019-04-09T17:31:49.021Z,24.43
2019-04-09T17:34:25.536Z,25.62
2019-04-09T17:36:44.745Z,25.43
2019-04-09T17:39:12.891Z,24.98
2019-04-09T17:41:39.793Z,24.60
2019-04-09T17:44:06.751Z,24.47
2019-04-09T17:46:33.655Z,24.95
2019-04-09T17:49:00.502Z,24.87
2019-04-09T17:51:27.470Z,25.20
2019-04-09T17:53:55.133Z,27.65
2019-04-09T17:56:22.394Z,23.30
2019-04-09T17:58:49.473Z,23.50
2019-04-09T18:01:16.345Z,24.82
2019-04-09T18:03:43.207Z,24.02
2019-04-09T18:06:10.514Z,26.27
2019-04-09T18:08:37.630Z,24.40
2019-04-09T18:11:05.691Z,24.32
2019-04-09T18:13:33.738Z,24.92
2019-04-09T18:16:00.861Z,24.37
2019-04-09T18:18:27.752Z,25.95
2019-04-09T18:20:54.597Z,24.17
2019-04-09T18:23:22.207Z,25.85
2019-04-09T18:25:58.852Z,24.57
2019-04-09T18:28:18.272Z,24.95
2019-04-09T18:30:45.157Z,26.25
2019-04-09T18:33:12.006Z,25.80
2019-04-09T18:35:38.886Z,26.02
2019-04-09T18:38:06.349Z,23.65
2019-04-09T18:40:33.745Z,24.00
2019-04-09T18:43:01.165Z,24.33
2019-04-09T18:45:28.956Z,24.98
2019-04-09T18:47:56.000Z,23.43
2019-04-09T18:50:22.917Z,23.30
2019-04-09T18:52:50.164Z,24.12
2019-04-09T18:55:18.067Z,23.70
2019-04-09T18:57:46.097Z,25.45
2019-04-09T19:00:16.398Z,22.70
2019-04-09T19:02:43.176Z,24.65
2019-04-09T19:05:14.424Z,23.73
2019-04-09T19:07:39.372Z,23.83
2019-04-09T19:10:06.868Z,24.45
2019-04-09T19:12:34.248Z,25.30
2019-04-09T19:15:02.362Z,26.80
2019-04-09T19:17:29.369Z,24.60
2019-04-09T19:19:56.517Z,25.52
2019-04-09T19:22:23.388Z,26.75
2019-04-09T19:24:51.145Z,25.40
2019-04-09T19:27:19.124Z,24.05
2019-04-09T19:29:46.878Z,25.75
2019-04-09T19:32:14.697Z,25.80
2019-04-09T19:34:41.661Z,25.02
2019-04-09T19:37:08.588Z,24.98
2019-04-09T19:39:37.492Z,25.40
2019-04-09T19:42:10.944Z,24.20
2019-04-09T19:44:35.769Z,24.85
2019-04-09T19:47:02.794Z,24.10
2019-04-09T19:49:30.649Z,22.20
2019-04-09T19:51:57.815Z,23.73
2019-04-09T19:54:24.708Z,23.18
2019-04-09T19:56:51.498Z,23.60
2019-04-09T19:59:18.460Z,22.25
2019-04-09T20:01:46.151Z,24.43
2019-04-09T20:04:13.109Z,23.60
2019-04-09T20:06:39.909Z,22.30
2019-04-09T20:09:11.056Z,23.60
2019-04-09T20:11:37.156Z,23.05
2019-04-09T20:14:04.145Z,25.00
2019-04-09T20:16:31.072Z,25.10
2019-04-09T20:18:58.023Z,24.43
2019-04-09T20:21:24.856Z,25.90
2019-04-09T20:23:51.813Z,23.87
2019-04-09T20:26:18.596Z,24.20
2019-04-09T20:28:46.565Z,25.80
2019-04-09T20:31:13.424Z,24.72
2019-04-09T20:33:40.323Z,25.85
2019-04-09T20:36:07.160Z,24.65
2019-04-09T20:38:35.340Z,28.07
2019-04-09T20:41:03.457Z,25.43
2019-04-09T20:43:30.926Z,25.30
2019-04-09T20:45:58.096Z,25.97
2019-04-09T20:48:25.700Z,27.80
2019-04-09T20:50:52.606Z,25.90
2019-04-09T20:53:20.056Z,28.65
2019-04-09T20:55:47.083Z,25.25
2019-04-09T20:58:14.812Z,24.80
2019-04-09T21:00:58.669Z,24.90
2019-04-09T21:03:27.316Z,28.70
2019-04-09T21:06:01.640Z,27.80
2019-04-09T21:08:25.191Z,28.23
2019-04-09T21:10:53.263Z,27.85
2019-04-09T21:13:21.024Z,27.60
2019-04-09T21:15:48.388Z,28.92
2019-04-09T21:18:16.504Z,27.45
2019-04-09T21:20:43.424Z,25.52
2019-04-09T21:23:10.208Z,22.90
2019-04-09T21:25:37.458Z,25.43
2019-04-09T21:28:05.405Z,24.63
2019-04-09T21:30:32.496Z,28.43
2019-04-09T21:32:59.285Z,28.25
2019-04-09T21:35:26.066Z,27.62
2019-04-09T21:37:52.958Z,29.05
2019-04-09T21:40:22.287Z,29.20
2019-04-09T21:42:49.115Z,29.57
2019-04-09T21:45:16.048Z,26.25
2019-04-09T21:47:42.892Z,31.17
2019-04-09T21:50:10.694Z,31.20
2019-04-09T21:52:37.725Z,29.60
2019-04-09T21:55:05.193Z,26.00
2019-04-09T21:57:33.569Z,26.62
2019-04-09T22:00:00.589Z,29.27
2019-04-09T22:02:27.440Z,28.20
2019-04-09T22:04:54.220Z,28.67
2019-04-09T22:07:21.116Z,25.70
2019-04-09T22:09:48.990Z,31.48
2019-04-09T22:12:16.064Z,28.02
2019-04-09T22:14:43.358Z,27.95
2019-04-09T22:17:10.293Z,26.20
2019-04-09T22:19:37.172Z,27.67
2019-04-09T22:22:05.031Z,26.77
2019-04-09T22:24:32.024Z,27.80
2019-04-09T22:26:58.834Z,26.40
2019-04-09T22:29:25.796Z,26.50
2019-04-09T22:31:53.297Z,25.82
2019-04-09T22:34:20.277Z,28.38
2019-04-09T22:36:47.277Z,26.80
2019-04-09T22:39:14.144Z,27.35
2019-04-09T22:41:41.074Z,27.98
2019-04-09T22:44:08.899Z,25.87
2019-04-09T22:46:36.302Z,22.62
2019-04-09T22:49:03.235Z,26.48
2019-04-09T22:51:30.749Z,30.27
2019-04-09T22:53:57.790Z,28.85
2019-04-09T22:56:24.616Z,28.42
2019-04-09T22:58:51.453Z,29.60
2019-04-09T23:01:29.389Z,27.37
2019-04-09T23:03:58.026Z,30.32
2019-04-09T23:06:47.461Z,30.75
2019-04-09T23:09:16.244Z,31.35
2019-04-09T23:11:43.837Z,39.40
2019-04-09T23:14:10.676Z,38.93
2019-04-09T23:16:37.497Z,36.68
2019-04-09T23:19:04.436Z,34.58
2019-04-09T23:21:31.689Z,32.93
2019-04-09T23:23:59.485Z,32.75
2019-04-09T23:26:26.352Z,32.70
2019-04-09T23:28:53.938Z,31.33
2019-04-09T23:31:20.941Z,31.27
2019-04-09T23:33:47.737Z,27.30
2019-04-09T23:36:14.568Z,27.50
2019-04-09T23:38:41.349Z,27.57
2019-04-09T23:41:08.180Z,27.45
2019-04-09T23:43:35.147Z,26.97
2019-04-09T23:46:03.966Z,25.40
2019-04-09T23:48:31.916Z,27.20
2019-04-09T23:51:00.338Z,26.80
2019-04-09T23:53:27.675Z,27.33
2019-04-09T23:55:55.491Z,26.57
2019-04-09T23:58:22.464Z,27.20
